Time;durP1;ratioP1;P1;durP2;ratioP2;P2;SDS_P1;SDS_P2;PMS_P1;PMS_P2;Temp;Humidity;BMP_temperature;BMP_pressure;BME280_temperature;BME280_humidity;BME280_pressure;Samples;Min_cycle;Max_cycle;Signal;HPM_P1;HPM_P2
2023/12/22 00:00:32;;;;;;;9.80;1.77;;;4.10;99.90;;;;;;6280471;22;20160;-85
2023/12/22 00:02:58;;;;;;;10.10;2.17;;;4.00;99.90;;;;;;6308857;22;20179;-88
2023/12/22 00:05:23;;;;;;;10.13;2.10;;;4.00;99.90;;;;;;6281016;22;20179;-86
2023/12/22 00:07:49;;;;;;;12.10;2.00;;;3.90;99.90;;;;;;6282579;22;20159;-85
2023/12/22 00:10:14;;;;;;;13.77;2.70;;;3.80;99.90;;;;;;6281843;22;20297;-86
2023/12/22 00:12:41;;;;;;;9.90;2.13;;;3.90;99.90;;;;;;6281861;22;20437;-86
2023/12/22 00:15:07;;;;;;;12.80;2.30;;;3.80;99.90;;;;;;6281476;22;20163;-86
2023/12/22 00:17:33;;;;;;;10.13;2.03;;;3.70;99.90;;;;;;6281387;22;20184;-86
2023/12/22 00:20:02;;;;;;;13.73;2.13;;;3.70;99.90;;;;;;6282133;22;20178;-86
2023/12/22 00:22:29;;;;;;;14.07;2.37;;;3.80;99.90;;;;;;6282066;22;20456;-86
2023/12/22 00:24:54;;;;;;;13.27;3.00;;;3.80;99.90;;;;;;6281451;22;20626;-86
2023/12/22 00:27:20;;;;;;;13.80;2.70;;;3.80;99.90;;;;;;6309001;22;20144;-88
2023/12/22 00:29:46;;;;;;;16.07;2.63;;;3.90;99.90;;;;;;6287626;22;20637;-86
2023/12/22 00:32:12;;;;;;;16.60;2.53;;;3.90;99.90;;;;;;6306197;22;20618;-86
2023/12/22 00:34:38;;;;;;;15.23;2.87;;;4.00;99.90;;;;;;6307702;22;20156;-86
2023/12/22 00:37:04;;;;;;;11.10;2.27;;;4.10;99.90;;;;;;6308954;22;20561;-85
2023/12/22 00:39:31;;;;;;;14.67;1.80;;;4.10;99.90;;;;;;6307046;22;20209;-85
2023/12/22 00:41:57;;;;;;;13.97;2.80;;;4.20;99.90;;;;;;6307624;22;20152;-86
2023/12/22 00:44:23;;;;;;;13.67;2.40;;;4.20;99.90;;;;;;6307356;22;20535;-86
2023/12/22 00:46:49;;;;;;;15.10;2.93;;;4.30;99.90;;;;;;6307307;22;20166;-86
2023/12/22 00:49:14;;;;;;;17.07;2.53;;;4.30;99.90;;;;;;6307519;22;20247;-88
2023/12/22 00:51:40;;;;;;;10.97;2.23;;;4.30;99.90;;;;;;6306598;22;20231;-86
2023/12/22 00:54:06;;;;;;;13.93;2.17;;;4.50;99.90;;;;;;6308984;22;20158;-86
2023/12/22 00:56:31;;;;;;;16.83;2.63;;;4.50;99.90;;;;;;6308791;22;20141;-86
2023/12/22 00:58:57;;;;;;;13.57;2.20;;;4.50;99.90;;;;;;6308803;22;20209;-85
2023/12/22 01:01:23;;;;;;;9.73;2.10;;;4.60;99.90;;;;;;6306775;22;20209;-85
2023/12/22 01:03:48;;;;;;;14.33;1.93;;;4.60;99.90;;;;;;6305535;22;20216;-82
2023/12/22 01:06:14;;;;;;;14.93;2.23;;;4.60;99.90;;;;;;6306571;22;20206;-87
2023/12/22 01:08:40;;;;;;;14.83;2.30;;;4.60;99.90;;;;;;6308846;22;20160;-86
2023/12/22 01:11:06;;;;;;;7.30;1.97;;;4.70;99.90;;;;;;6309347;22;20552;-83
2023/12/22 01:13:31;;;;;;;12.20;2.27;;;4.60;99.90;;;;;;6308974;22;20167;-83
2023/12/22 01:15:57;;;;;;;14.53;3.10;;;4.70;99.90;;;;;;6308606;22;20148;-83
2023/12/22 01:18:25;;;;;;;18.57;3.00;;;4.80;99.90;;;;;;6309199;22;20599;-86
2023/12/22 01:20:50;;;;;;;18.33;2.97;;;4.80;99.90;;;;;;6311112;22;20152;-85
2023/12/22 01:23:16;;;;;;;14.17;2.63;;;4.70;99.90;;;;;;6309135;22;20182;-86
2023/12/22 01:25:42;;;;;;;13.43;3.27;;;4.70;99.90;;;;;;6309404;22;20231;-85
2023/12/22 01:28:07;;;;;;;16.17;3.83;;;4.70;99.90;;;;;;6249257;22;20480;-85
2023/12/22 01:30:33;;;;;;;10.40;2.40;;;4.70;99.90;;;;;;6278143;22;20148;-84
2023/12/22 01:32:59;;;;;;;13.30;2.80;;;4.70;99.90;;;;;;6278487;22;20421;-84
2023/12/22 01:35:24;;;;;;;19.30;3.70;;;4.70;99.90;;;;;;6250437;22;20160;-84
2023/12/22 01:37:51;;;;;;;17.53;3.43;;;4.60;99.90;;;;;;6251186;22;20191;-85
2023/12/22 01:40:16;;;;;;;11.70;2.70;;;4.70;99.90;;;;;;6252141;22;20164;-86
2023/12/22 01:42:42;;;;;;;17.03;4.67;;;4.70;99.90;;;;;;6251086;22;20579;-85
2023/12/22 01:45:08;;;;;;;15.33;3.00;;;4.80;99.90;;;;;;6278894;22;20153;-83
2023/12/22 01:47:35;;;;;;;16.27;3.20;;;4.80;99.90;;;;;;6251345;22;20207;-84
2023/12/22 01:50:01;;;;;;;8.23;2.47;;;4.80;99.90;;;;;;6277933;22;20226;-82
2023/12/22 01:52:27;;;;;;;10.97;3.27;;;4.80;99.90;;;;;;6252077;22;20160;-85
2023/12/22 01:54:55;;;;;;;20.47;2.40;;;4.90;99.90;;;;;;6250209;22;20156;-82
2023/12/22 01:57:21;;;;;;;16.30;2.37;;;4.80;99.90;;;;;;6251522;22;20157;-84
2023/12/22 01:59:49;;;;;;;10.93;2.30;;;4.70;99.90;;;;;;6251588;22;20164;-84
2023/12/22 02:02:16;;;;;;;16.17;2.23;;;4.60;99.90;;;;;;6278353;22;20164;-85
2023/12/22 02:04:43;;;;;;;10.10;2.63;;;4.60;99.90;;;;;;6251048;22;20156;-84
2023/12/22 02:07:10;;;;;;;12.03;2.33;;;4.60;99.90;;;;;;6251551;22;20604;-85
2023/12/22 02:09:37;;;;;;;10.67;2.00;;;4.60;99.90;;;;;;6250507;22;20504;-84
2023/12/22 02:12:03;;;;;;;15.30;2.77;;;4.50;99.90;;;;;;6251668;22;20153;-83
2023/12/22 02:14:29;;;;;;;15.50;2.97;;;4.60;99.90;;;;;;6278342;22;20210;-83
2023/12/22 02:17:08;;;;;;;11.90;2.13;;;4.50;99.90;;;;;;6278897;22;20540;-85
2023/12/22 02:19:43;;;;;;;10.73;2.47;;;4.60;99.90;;;;;;6278925;22;20155;-86
2023/12/22 02:22:10;;;;;;;14.43;2.87;;;4.70;99.90;;;;;;6251392;22;20231;-84
2023/12/22 02:24:36;;;;;;;7.87;1.73;;;4.60;99.90;;;;;;6250788;22;20195;-83
2023/12/22 02:27:25;;;;;;;12.00;2.70;;;4.60;99.90;;;;;;6251916;22;20500;-84
2023/12/22 02:30:11;;;;;;;11.67;2.00;;;4.60;99.90;;;;;;6286221;22;20196;-84
2023/12/22 02:32:42;;;;;;;6.93;1.60;;;4.60;99.90;;;;;;6309200;22;20176;-84
2023/12/22 02:35:11;;;;;;;6.93;1.57;;;4.40;99.90;;;;;;6282488;22;20559;-85
2023/12/22 02:37:41;;;;;;;10.60;2.17;;;4.50;99.90;;;;;;6307473;22;20183;-83
2023/12/22 02:40:09;;;;;;;14.63;2.63;;;4.50;99.90;;;;;;6282700;22;20562;-84
2023/12/22 02:42:37;;;;;;;11.37;2.10;;;4.40;99.90;;;;;;6307757;22;20136;-82
2023/12/22 02:45:05;;;;;;;12.50;2.13;;;4.40;99.90;;;;;;6280536;22;20159;-82
2023/12/22 02:47:33;;;;;;;7.80;1.60;;;4.30;99.90;;;;;;6281989;22;20156;-85
2023/12/22 02:49:58;;;;;;;11.10;1.80;;;4.30;99.90;;;;;;6281213;22;20222;-82
2023/12/22 02:52:25;;;;;;;13.63;1.60;;;4.30;99.90;;;;;;6282300;22;20151;-83
2023/12/22 02:54:50;;;;;;;11.07;2.27;;;4.30;99.90;;;;;;6308132;22;20219;-83
2023/12/22 02:57:16;;;;;;;8.77;1.80;;;4.20;99.90;;;;;;6280398;22;20186;-86
2023/12/22 02:59:42;;;;;;;10.90;2.50;;;4.30;99.90;;;;;;6281988;22;20163;-85
2023/12/22 03:02:07;;;;;;;7.00;1.77;;;4.30;99.90;;;;;;6280558;22;20187;-84
2023/12/22 03:04:33;;;;;;;11.50;2.10;;;4.20;99.90;;;;;;6281452;22;20194;-83
2023/12/22 03:06:58;;;;;;;10.97;2.27;;;4.20;99.90;;;;;;6281777;22;20236;-84
2023/12/22 03:09:24;;;;;;;13.30;2.63;;;4.20;99.90;;;;;;6308580;22;20144;-84
2023/12/22 03:11:54;;;;;;;10.93;2.20;;;4.30;99.90;;;;;;6281279;22;20163;-87
2023/12/22 03:14:20;;;;;;;13.50;2.13;;;4.20;99.90;;;;;;6281229;22;20147;-83
2023/12/22 03:16:45;;;;;;;8.47;1.87;;;4.20;99.90;;;;;;6308398;22;20197;-86
2023/12/22 03:19:11;;;;;;;11.17;2.10;;;4.20;99.90;;;;;;6307706;22;20262;-83
2023/12/22 03:21:37;;;;;;;18.50;1.90;;;4.30;99.90;;;;;;6281740;22;20155;-84
2023/12/22 03:24:03;;;;;;;9.40;1.63;;;4.30;99.90;;;;;;6307897;22;20136;-83
2023/12/22 03:26:28;;;;;;;8.47;1.83;;;4.30;99.90;;;;;;6281525;22;20568;-83
2023/12/22 03:28:54;;;;;;;9.13;1.70;;;4.30;99.90;;;;;;6307507;22;20198;-82
2023/12/22 03:31:20;;;;;;;13.03;1.83;;;4.30;99.90;;;;;;6309093;22;20455;-87
2023/12/22 03:33:45;;;;;;;16.33;2.53;;;4.20;99.90;;;;;;6281217;22;20144;-84
2023/12/22 03:36:11;;;;;;;9.70;2.77;;;4.30;99.90;;;;;;6308733;22;20148;-83
2023/12/22 03:38:37;;;;;;;7.83;1.50;;;4.30;99.90;;;;;;6280970;22;20279;-83
2023/12/22 03:41:05;;;;;;;7.83;1.53;;;4.30;99.90;;;;;;6308748;22;20144;-84
2023/12/22 03:43:31;;;;;;;4.97;1.03;;;4.40;99.90;;;;;;6280910;22;20190;-84
2023/12/22 03:45:57;;;;;;;8.87;1.30;;;4.30;99.90;;;;;;6279862;22;20539;-82
2023/12/22 03:48:22;;;;;;;4.97;1.10;;;4.30;99.90;;;;;;6281654;22;20160;-85
2023/12/22 03:50:48;;;;;;;10.00;1.13;;;4.20;99.90;;;;;;6280913;22;20485;-83
2023/12/22 03:53:14;;;;;;;3.53;0.80;;;4.10;99.90;;;;;;6279426;22;20902;-84
2023/12/22 03:55:39;;;;;;;7.90;0.80;;;4.20;99.90;;;;;;6308816;22;20176;-84
2023/12/22 03:58:07;;;;;;;2.30;0.80;;;4.00;99.90;;;;;;6307679;22;20549;-84
2023/12/22 04:00:33;;;;;;;5.23;1.00;;;4.00;99.90;;;;;;6281656;22;20152;-84
2023/12/22 04:02:59;;;;;;;3.73;0.83;;;3.90;99.90;;;;;;6308804;22;20201;-84
2023/12/22 04:05:25;;;;;;;2.07;0.67;;;3.90;99.90;;;;;;6278626;22;20196;-84
2023/12/22 04:07:50;;;;;;;2.57;0.80;;;3.90;99.90;;;;;;6308614;22;20152;-84
2023/12/22 04:10:17;;;;;;;6.37;0.90;;;3.80;99.90;;;;;;6308653;22;20190;-84
2023/12/22 04:12:44;;;;;;;6.27;1.47;;;3.80;99.90;;;;;;6281492;22;20187;-86
2023/12/22 04:15:10;;;;;;;7.47;1.57;;;3.80;99.90;;;;;;6307714;22;20148;-85
2023/12/22 04:17:36;;;;;;;3.20;0.93;;;3.90;99.90;;;;;;6280953;22;20248;-86
2023/12/22 04:20:02;;;;;;;8.40;1.20;;;3.80;99.90;;;;;;6280673;22;20159;-84
2023/12/22 04:22:29;;;;;;;7.10;1.30;;;3.90;99.90;;;;;;6281196;22;20160;-85
2023/12/22 04:24:55;;;;;;;6.87;1.20;;;3.90;99.90;;;;;;6279464;22;20156;-83
2023/12/22 04:27:20;;;;;;;5.03;1.10;;;3.90;99.90;;;;;;6306953;22;20175;-85
2023/12/22 04:29:46;;;;;;;11.30;1.77;;;3.90;99.90;;;;;;6280489;22;20198;-83
2023/12/22 04:32:12;;;;;;;10.27;1.97;;;3.90;99.90;;;;;;6308588;22;20151;-84
2023/12/22 04:34:38;;;;;;;8.30;1.60;;;3.90;99.90;;;;;;6308126;22;20436;-86
2023/12/22 04:37:03;;;;;;;9.17;1.60;;;3.90;99.90;;;;;;6280294;22;20160;-86
2023/12/22 04:39:29;;;;;;;10.40;1.90;;;3.90;99.90;;;;;;6308476;22;20179;-84
2023/12/22 04:41:56;;;;;;;10.43;2.47;;;3.90;99.90;;;;;;6281873;22;20163;-87
2023/12/22 04:44:22;;;;;;;12.30;2.17;;;4.00;99.90;;;;;;6311196;22;20219;-83
2023/12/22 04:46:48;;;;;;;14.70;2.03;;;4.00;99.90;;;;;;6283134;22;20590;-85
2023/12/22 04:49:13;;;;;;;12.67;2.37;;;4.10;99.90;;;;;;6310038;22;20152;-85
2023/12/22 04:51:39;;;;;;;16.63;2.10;;;4.00;99.90;;;;;;6282457;22;20243;-84
2023/12/22 04:54:05;;;;;;;15.40;2.63;;;4.10;99.90;;;;;;6283253;22;20196;-82
2023/12/22 04:56:31;;;;;;;11.50;2.23;;;4.20;99.90;;;;;;6281785;22;20440;-84
2023/12/22 04:58:56;;;;;;;11.10;2.33;;;4.20;99.90;;;;;;6310703;22;20179;-84
2023/12/22 05:01:22;;;;;;;12.97;2.07;;;4.20;99.90;;;;;;6282834;22;20159;-84
2023/12/22 05:03:48;;;;;;;12.70;2.30;;;4.20;99.90;;;;;;6283290;22;20387;-85
2023/12/22 05:06:13;;;;;;;10.50;2.23;;;4.20;99.90;;;;;;6309671;22;20148;-84
2023/12/22 05:08:39;;;;;;;15.47;1.77;;;4.20;99.90;;;;;;6282867;22;20262;-85
2023/12/22 05:11:05;;;;;;;7.10;2.00;;;4.20;99.90;;;;;;6309035;22;20148;-83
2023/12/22 05:13:31;;;;;;;10.10;1.93;;;4.20;99.90;;;;;;6310500;22;20577;-83
2023/12/22 05:15:56;;;;;;;6.67;1.87;;;4.10;99.90;;;;;;6310487;22;20137;-84
2023/12/22 05:18:23;;;;;;;8.60;1.97;;;4.10;99.90;;;;;;6309267;22;20183;-84
2023/12/22 05:20:48;;;;;;;12.70;1.90;;;4.00;99.90;;;;;;6282870;22;20169;-83
2023/12/22 05:23:16;;;;;;;7.30;2.00;;;4.10;99.90;;;;;;6309966;22;20223;-83
2023/12/22 05:25:41;;;;;;;7.97;1.43;;;4.10;99.90;;;;;;6310243;22;20645;-84
2023/12/22 05:28:07;;;;;;;7.70;1.73;;;4.00;99.90;;;;;;6281993;22;20188;-86
2023/12/22 05:30:33;;;;;;;8.63;1.83;;;4.00;99.90;;;;;;6283169;22;20160;-84
2023/12/22 05:32:58;;;;;;;6.03;1.40;;;3.80;99.90;;;;;;6282617;22;20163;-83
2023/12/22 05:35:24;;;;;;;7.00;1.03;;;3.40;99.90;;;;;;6282658;22;20154;-83
2023/12/22 05:37:50;;;;;;;6.77;1.53;;;3.10;99.90;;;;;;6309390;22;20179;-85
2023/12/22 05:40:16;;;;;;;10.83;1.57;;;3.00;99.90;;;;;;6282913;22;20152;-86
2023/12/22 05:42:42;;;;;;;8.93;1.87;;;2.90;99.90;;;;;;6281970;22;20159;-84
2023/12/22 05:45:10;;;;;;;7.87;1.50;;;2.80;99.90;;;;;;6281275;22;20160;-84
2023/12/22 05:47:36;;;;;;;8.17;1.43;;;2.80;99.90;;;;;;6281516;22;20152;-85
2023/12/22 05:50:03;;;;;;;6.47;1.20;;;2.70;99.90;;;;;;6309654;22;20228;-85
2023/12/22 05:52:29;;;;;;;8.93;1.47;;;2.70;99.90;;;;;;6282662;22;20239;-84
2023/12/22 05:54:54;;;;;;;12.80;1.80;;;2.80;99.90;;;;;;6309566;22;20490;-84
2023/12/22 05:57:20;;;;;;;4.57;1.10;;;2.70;99.90;;;;;;6281949;22;20163;-85
2023/12/22 05:59:46;;;;;;;10.13;1.33;;;2.80;99.90;;;;;;6309501;22;20152;-85
2023/12/22 06:02:13;;;;;;;9.37;1.80;;;2.70;99.90;;;;;;6282752;22;20152;-85
2023/12/22 06:04:38;;;;;;;9.70;1.93;;;2.70;99.90;;;;;;6309845;22;20140;-86
2023/12/22 06:07:04;;;;;;;8.03;1.40;;;2.70;99.90;;;;;;6281756;22;20159;-84
2023/12/22 06:09:30;;;;;;;8.10;1.87;;;2.80;99.90;;;;;;6310174;22;20227;-84
2023/12/22 06:11:56;;;;;;;4.47;1.20;;;2.90;99.90;;;;;;6309754;22;20140;-84
2023/12/22 06:14:22;;;;;;;3.73;1.30;;;2.90;99.90;;;;;;6282589;22;20163;-86
2023/12/22 06:16:47;;;;;;;6.07;1.10;;;3.00;99.90;;;;;;6309348;22;20452;-86
2023/12/22 06:19:13;;;;;;;8.73;1.57;;;3.00;99.90;;;;;;6309866;22;20183;-86
2023/12/22 06:21:39;;;;;;;5.70;1.37;;;3.00;99.90;;;;;;6281793;22;20209;-86
2023/12/22 06:24:06;;;;;;;10.43;1.50;;;3.00;99.90;;;;;;6282654;22;20160;-85
2023/12/22 06:26:31;;;;;;;5.60;1.50;;;3.10;99.90;;;;;;6281668;22;20179;-87
2023/12/22 06:28:57;;;;;;;10.93;1.73;;;3.20;99.90;;;;;;6282108;22;20611;-86
2023/12/22 06:31:23;;;;;;;10.40;1.87;;;3.20;99.90;;;;;;6281789;22;20464;-86
2023/12/22 06:33:49;;;;;;;10.60;1.87;;;3.20;99.90;;;;;;6282665;22;20570;-84
2023/12/22 06:36:23;;;;;;;14.90;2.07;;;3.40;99.90;;;;;;6281782;22;20155;-87
2023/12/22 06:38:57;;;;;;;14.13;2.50;;;3.40;99.90;;;;;;6282935;22;20551;-84
2023/12/22 06:41:25;;;;;;;13.40;2.33;;;3.50;99.90;;;;;;6281105;22;20233;-86
2023/12/22 06:43:52;;;;;;;10.23;2.40;;;3.60;99.90;;;;;;6309741;22;20148;-85
2023/12/22 06:46:19;;;;;;;12.50;2.00;;;3.60;99.90;;;;;;6282152;22;20155;-85
2023/12/22 06:48:45;;;;;;;12.80;2.17;;;3.70;99.90;;;;;;6309437;22;20448;-86
2023/12/22 06:51:22;;;;;;;11.80;3.20;;;3.60;99.90;;;;;;6280663;22;20156;-87
2023/12/22 06:53:49;;;;;;;10.17;2.40;;;3.70;99.90;;;;;;6282188;22;20152;-88
2023/12/22 06:56:20;;;;;;;7.30;1.70;;;3.60;99.90;;;;;;6282302;22;20166;-86
2023/12/22 06:58:48;;;;;;;5.27;0.97;;;3.20;99.90;;;;;;6310082;22;20258;-85
2023/12/22 07:01:21;;;;;;;2.30;0.70;;;3.10;99.90;;;;;;6308707;22;20155;-86
2023/12/22 07:03:48;;;;;;;7.93;0.90;;;3.00;99.90;;;;;;6282317;22;20458;-88
2023/12/22 07:06:15;;;;;;;1.30;0.60;;;2.90;99.90;;;;;;6280346;22;20152;-86
2023/12/22 07:08:42;;;;;;;3.03;0.60;;;2.80;99.90;;;;;;6282527;22;20205;-87
2023/12/22 07:11:08;;;;;;;2.57;1.00;;;2.80;99.90;;;;;;6281119;22;20160;-87
2023/12/22 07:13:36;;;;;;;1.97;0.47;;;2.80;99.90;;;;;;6282201;22;20156;-85
2023/12/22 07:16:02;;;;;;;5.60;0.80;;;2.80;99.90;;;;;;6281766;22;20176;-86
2023/12/22 07:18:31;;;;;;;6.17;0.80;;;2.60;99.90;;;;;;6282184;22;20244;-84
2023/12/22 07:20:58;;;;;;;4.43;1.10;;;2.70;99.90;;;;;;6308197;22;20310;-85
2023/12/22 07:23:24;;;;;;;6.40;1.10;;;2.70;99.90;;;;;;6309117;22;20159;-85
2023/12/22 07:25:50;;;;;;;5.00;1.23;;;2.80;99.90;;;;;;6308865;22;20227;-83
2023/12/22 07:28:15;;;;;;;6.40;0.80;;;2.80;99.90;;;;;;6270723;22;20551;-84
2023/12/22 07:30:41;;;;;;;8.93;1.40;;;2.90;99.90;;;;;;6278166;22;20144;-84
2023/12/22 07:33:07;;;;;;;6.53;1.43;;;2.90;99.90;;;;;;6251063;22;20199;-83
2023/12/22 07:35:34;;;;;;;7.73;1.30;;;3.00;99.90;;;;;;6277890;22;20212;-84
2023/12/22 07:38:00;;;;;;;6.53;1.57;;;3.20;99.90;;;;;;6277214;22;20587;-85
2023/12/22 07:40:25;;;;;;;8.83;1.13;;;3.20;99.90;;;;;;6250768;22;20179;-86
2023/12/22 07:42:51;;;;;;;9.57;1.53;;;3.30;99.90;;;;;;6277941;22;20153;-86
2023/12/22 07:45:17;;;;;;;7.33;1.30;;;3.40;99.90;;;;;;6250503;22;20159;-84
2023/12/22 07:47:43;;;;;;;8.27;1.83;;;3.40;99.90;;;;;;6250735;22;20164;-86
2023/12/22 07:50:09;;;;;;;8.50;1.63;;;3.50;99.90;;;;;;6277531;22;21012;-85
2023/12/22 07:52:38;;;;;;;9.67;1.80;;;3.50;99.90;;;;;;6251433;22;20224;-84
2023/12/22 07:55:07;;;;;;;4.77;1.57;;;3.60;99.90;;;;;;6278202;22;20235;-84
2023/12/22 07:57:32;;;;;;;8.83;1.73;;;3.50;99.90;;;;;;6276215;22;20137;-86
2023/12/22 07:59:58;;;;;;;10.07;2.10;;;3.60;99.90;;;;;;6277170;22;20163;-85
2023/12/22 08:02:24;;;;;;;7.10;1.20;;;3.70;99.90;;;;;;6250617;22;20548;-85
2023/12/22 08:04:51;;;;;;;10.47;1.53;;;3.80;99.90;;;;;;6277679;22;20149;-86
2023/12/22 08:07:17;;;;;;;7.80;1.53;;;3.80;99.90;;;;;;6277492;22;20136;-88
2023/12/22 08:09:42;;;;;;;9.73;1.20;;;3.80;99.90;;;;;;6249634;22;20239;-87
2023/12/22 08:12:08;;;;;;;6.77;1.60;;;3.90;99.90;;;;;;6278240;22;20231;-87
2023/12/22 08:14:34;;;;;;;7.13;1.40;;;3.80;99.90;;;;;;6251074;22;20153;-86
2023/12/22 08:17:01;;;;;;;8.57;1.33;;;3.80;99.90;;;;;;6249574;22;20239;-87
2023/12/22 08:19:26;;;;;;;10.40;1.53;;;3.80;99.90;;;;;;6250229;22;20184;-85
2023/12/22 08:21:55;;;;;;;4.87;1.17;;;4.00;99.90;;;;;;6250628;22;20241;-87
2023/12/22 08:24:22;;;;;;;11.03;1.73;;;4.00;99.90;;;;;;6250527;22;20527;-85
2023/12/22 08:26:48;;;;;;;9.47;1.47;;;4.10;99.90;;;;;;6278121;22;20194;-87
2023/12/22 08:29:15;;;;;;;9.30;1.57;;;4.10;99.90;;;;;;6249981;22;20211;-85
2023/12/22 08:31:41;;;;;;;5.70;1.20;;;4.10;99.90;;;;;;6251209;22;20163;-86
2023/12/22 08:34:07;;;;;;;10.27;1.53;;;4.20;99.90;;;;;;6250622;22;20527;-85
2023/12/22 08:36:33;;;;;;;9.93;1.60;;;4.10;99.90;;;;;;6250674;22;20156;-85
2023/12/22 08:38:58;;;;;;;10.13;2.17;;;4.10;99.90;;;;;;6276361;22;20184;-83
2023/12/22 08:41:24;;;;;;;6.53;1.50;;;4.00;99.90;;;;;;6277357;22;20155;-86
2023/12/22 08:43:50;;;;;;;7.57;2.10;;;4.10;99.90;;;;;;6250788;22;20160;-84
2023/12/22 08:46:16;;;;;;;8.83;1.37;;;4.10;99.90;;;;;;6250354;22;20522;-84
2023/12/22 08:48:42;;;;;;;8.77;1.80;;;4.00;99.90;;;;;;6250218;22;20156;-84
2023/12/22 09:07:58;;;;;;;15.23;2.60;;;4.00;99.90;;;;;;4867089;22;20206;-81
2023/12/22 09:10:25;;;;;;;11.90;1.63;;;4.10;99.90;;;;;;6308188;22;20230;-81
2023/12/22 09:12:51;;;;;;;7.87;1.80;;;4.10;99.90;;;;;;6281623;22;20674;-82
2023/12/22 09:15:16;;;;;;;9.80;2.03;;;4.10;99.90;;;;;;6308935;22;20156;-82
2023/12/22 09:17:42;;;;;;;18.20;2.53;;;4.20;99.90;;;;;;6308784;22;20225;-82
2023/12/22 09:20:08;;;;;;;8.23;2.50;;;4.20;99.90;;;;;;6280867;22;20160;-81
2023/12/22 09:22:34;;;;;;;11.60;2.60;;;4.20;99.90;;;;;;6279860;22;20240;-81
2023/12/22 09:25:00;;;;;;;20.73;3.27;;;4.20;99.90;;;;;;6308063;22;20148;-80
2023/12/22 09:27:30;;;;;;;18.33;2.63;;;4.30;99.90;;;;;;6308365;22;20144;-81
2023/12/22 09:29:56;;;;;;;15.23;2.43;;;4.30;99.90;;;;;;6283170;22;20160;-81
2023/12/22 09:32:22;;;;;;;15.13;2.70;;;4.30;99.90;;;;;;6310092;22;20613;-80
2023/12/22 09:34:48;;;;;;;15.77;2.93;;;4.40;99.90;;;;;;6309328;22;20160;-81
2023/12/22 09:37:14;;;;;;;20.43;3.53;;;4.40;99.90;;;;;;6280401;22;20160;-80
2023/12/22 09:39:40;;;;;;;14.17;2.47;;;4.50;99.90;;;;;;6280329;22;20638;-80
2023/12/22 09:42:06;;;;;;;15.87;3.20;;;4.60;99.90;;;;;;6309438;22;20219;-81
2023/12/22 09:44:34;;;;;;;15.70;3.23;;;4.80;99.90;;;;;;6282505;22;20164;-80
2023/12/22 09:47:04;;;;;;;20.50;3.83;;;4.90;99.90;;;;;;6282226;22;20548;-79
2023/12/22 09:49:30;;;;;;;24.10;4.07;;;5.00;99.90;;;;;;6308940;22;20132;-81
2023/12/22 09:51:57;;;;;;;29.93;3.73;;;5.10;99.90;;;;;;6282188;22;20163;-82
2023/12/22 09:54:25;;;;;;;17.03;4.33;;;5.10;99.90;;;;;;6282753;22;20167;-80
2023/12/22 09:56:52;;;;;;;18.17;3.17;;;5.20;99.90;;;;;;6282755;22;20195;-82
2023/12/22 09:59:18;;;;;;;19.13;3.20;;;5.30;99.90;;;;;;6280141;22;20184;-83
2023/12/22 10:01:48;;;;;;;15.67;2.90;;;5.40;99.90;;;;;;6282267;22;20183;-83
2023/12/22 10:04:14;;;;;;;14.67;2.70;;;5.50;99.90;;;;;;6282523;22;20318;-83
2023/12/22 10:06:41;;;;;;;19.93;2.70;;;5.50;99.90;;;;;;6281999;22;20159;-82
2023/12/22 10:09:08;;;;;;;13.33;2.60;;;5.50;99.90;;;;;;6298871;22;20195;-82
2023/12/22 10:11:37;;;;;;;16.50;2.77;;;5.50;99.90;;;;;;6308639;22;20167;-83
2023/12/22 10:14:04;;;;;;;14.10;3.03;;;5.50;99.90;;;;;;6308597;22;20160;-82
2023/12/22 10:16:30;;;;;;;14.63;2.30;;;5.40;99.90;;;;;;6308542;22;20155;-81
2023/12/22 10:18:56;;;;;;;13.50;2.90;;;5.40;99.90;;;;;;6309588;22;20187;-81
2023/12/22 10:21:22;;;;;;;9.37;2.47;;;5.30;99.90;;;;;;6308324;22;20566;-82
2023/12/22 10:23:48;;;;;;;13.87;2.17;;;5.30;99.90;;;;;;6307596;22;20333;-81
2023/12/22 10:26:16;;;;;;;9.30;2.70;;;5.30;99.90;;;;;;6309731;22;20766;-81
2023/12/22 10:28:43;;;;;;;8.07;2.10;;;5.20;99.90;;;;;;6308130;22;20159;-82
2023/12/22 10:31:09;;;;;;;9.87;1.63;;;5.20;99.90;;;;;;6309746;22;20144;-81
2023/12/22 10:33:35;;;;;;;7.53;1.67;;;5.10;99.90;;;;;;6308029;22;20467;-82
2023/12/22 10:36:00;;;;;;;8.90;2.07;;;5.10;99.90;;;;;;6308177;22;20161;-82
2023/12/22 10:38:35;;;;;;;9.60;1.93;;;5.00;99.90;;;;;;6307109;22;20252;-82
2023/12/22 10:41:02;;;;;;;6.03;1.37;;;4.90;99.90;;;;;;6308875;22;20192;-81
2023/12/22 10:43:29;;;;;;;8.50;1.97;;;4.90;99.90;;;;;;6308018;22;20159;-83
2023/12/22 10:45:55;;;;;;;9.13;1.83;;;4.80;99.90;;;;;;6307939;22;20167;-80
2023/12/22 10:48:22;;;;;;;8.00;1.47;;;4.80;99.90;;;;;;6307510;22;20152;-80
2023/12/22 10:50:48;;;;;;;8.03;1.47;;;4.80;99.90;;;;;;6307989;22;20251;-82
2023/12/22 10:53:15;;;;;;;9.77;2.23;;;4.70;99.90;;;;;;6309481;22;20152;-82
2023/12/22 10:55:41;;;;;;;7.27;2.03;;;4.80;99.90;;;;;;6305466;22;20205;-81
2023/12/22 10:58:08;;;;;;;11.67;2.53;;;4.80;99.90;;;;;;6306713;22;20184;-79
2023/12/22 11:00:37;;;;;;;11.70;2.67;;;4.80;99.90;;;;;;6309539;22;20205;-81
2023/12/22 11:03:06;;;;;;;9.07;2.13;;;4.90;99.90;;;;;;6307206;22;20159;-81
2023/12/22 11:05:37;;;;;;;9.60;1.77;;;4.80;99.90;;;;;;6306935;22;20231;-82
2023/12/22 11:08:08;;;;;;;11.73;1.60;;;4.80;99.90;;;;;;6307286;22;20241;-80
2023/12/22 11:10:38;;;;;;;8.97;1.50;;;4.80;99.90;;;;;;6308707;22;20144;-80
2023/12/22 11:13:04;;;;;;;13.67;1.93;;;4.80;99.90;;;;;;6307710;22;20144;-80
2023/12/22 11:15:32;;;;;;;5.17;1.70;;;4.80;99.90;;;;;;6281662;22;20156;-80
2023/12/22 11:17:59;;;;;;;13.20;1.93;;;4.70;99.90;;;;;;6308626;22;20175;-80
2023/12/22 11:20:26;;;;;;;8.77;1.63;;;4.70;99.90;;;;;;6281616;22;20163;-81
2023/12/22 11:22:55;;;;;;;14.97;3.17;;;4.60;99.90;;;;;;6308377;22;20155;-79
2023/12/22 11:25:22;;;;;;;9.13;2.37;;;4.50;99.90;;;;;;6281625;22;20203;-82
2023/12/22 11:27:52;;;;;;;7.33;2.13;;;4.40;99.90;;;;;;6280612;22;20163;-82
2023/12/22 11:30:20;;;;;;;10.30;2.73;;;4.40;99.90;;;;;;6309475;22;20277;-84
2023/12/22 11:32:46;;;;;;;10.43;2.00;;;4.40;99.90;;;;;;6281886;22;20509;-83
2023/12/22 11:35:13;;;;;;;12.67;2.47;;;4.30;99.90;;;;;;6282444;22;20180;-84
2023/12/22 11:37:40;;;;;;;7.30;2.10;;;4.20;99.90;;;;;;6281568;22;20159;-84
2023/12/22 11:40:07;;;;;;;13.33;2.60;;;4.20;99.90;;;;;;6281676;22;20155;-84
2023/12/22 11:42:42;;;;;;;12.13;2.77;;;4.10;99.90;;;;;;6309410;22;20501;-83
2023/12/22 11:45:12;;;;;;;10.37;2.10;;;3.90;99.90;;;;;;6282538;22;20151;-86
2023/12/22 11:47:38;;;;;;;10.23;2.30;;;3.80;99.90;;;;;;6282459;22;20144;-85
2023/12/22 11:50:08;;;;;;;6.37;1.70;;;3.80;99.90;;;;;;6281901;22;20171;-83
2023/12/22 11:52:38;;;;;;;8.93;1.87;;;3.80;99.90;;;;;;6281387;22;20219;-83
2023/12/22 11:55:06;;;;;;;4.30;1.07;;;3.80;99.90;;;;;;6294707;22;20156;-83
2023/12/22 11:57:38;;;;;;;8.33;1.50;;;3.80;99.90;;;;;;6280344;22;20150;-85
2023/12/22 12:00:10;;;;;;;3.43;1.00;;;3.80;99.90;;;;;;6280276;22;20452;-83
2023/12/22 12:02:37;;;;;;;3.67;1.43;;;3.80;99.90;;;;;;6307217;22;20171;-82
2023/12/22 12:05:06;;;;;;;3.03;1.00;;;3.80;99.90;;;;;;6279364;22;20155;-81
2023/12/22 12:07:48;;;;;;;3.60;1.13;;;3.80;99.90;;;;;;6298178;22;20151;-83
2023/12/22 12:10:32;;;;;;;2.80;0.97;;;3.80;99.90;;;;;;6281510;22;20160;-85
2023/12/22 12:13:08;;;;;;;3.40;0.90;;;3.80;99.90;;;;;;6308329;22;20152;-85
2023/12/22 12:15:38;;;;;;;1.80;0.90;;;3.80;99.90;;;;;;6307839;22;20158;-83
2023/12/22 12:18:05;;;;;;;1.77;0.83;;;3.70;99.90;;;;;;6280183;22;20195;-82
2023/12/22 12:20:32;;;;;;;3.17;1.10;;;3.70;99.90;;;;;;6281307;22;20602;-83
2023/12/22 12:22:58;;;;;;;3.77;1.40;;;3.70;99.90;;;;;;6307963;22;20621;-83
2023/12/22 12:25:28;;;;;;;6.67;1.00;;;3.80;99.90;;;;;;6280856;22;20164;-82
2023/12/22 12:28:06;;;;;;;5.80;1.23;;;3.80;99.90;;;;;;6280791;22;20167;-83
2023/12/22 12:30:35;;;;;;;5.07;1.10;;;3.80;99.90;;;;;;6281140;22;20551;-83
2023/12/22 12:33:12;;;;;;;5.43;1.13;;;3.90;99.90;;;;;;6280965;22;20230;-83
2023/12/22 12:35:39;;;;;;;5.20;1.27;;;3.90;99.90;;;;;;6308495;22;20190;-82
2023/12/22 12:38:06;;;;;;;5.63;1.20;;;3.90;99.90;;;;;;6279296;22;20179;-82
2023/12/22 12:40:33;;;;;;;6.60;1.10;;;4.10;99.90;;;;;;6280969;22;20160;-82
2023/12/22 12:43:00;;;;;;;5.93;1.07;;;4.10;99.90;;;;;;6281041;22;20159;-83
2023/12/22 12:45:26;;;;;;;4.03;0.90;;;4.00;99.90;;;;;;6280952;22;20229;-82
2023/12/22 12:48:01;;;;;;;5.37;1.37;;;4.00;99.90;;;;;;6280841;22;20156;-83
2023/12/22 12:50:28;;;;;;;6.63;1.43;;;4.00;99.90;;;;;;6280480;22;20156;-82
2023/12/22 12:52:55;;;;;;;4.83;1.00;;;4.10;99.90;;;;;;6308151;22;20148;-82
2023/12/22 12:55:23;;;;;;;5.67;1.10;;;4.10;99.90;;;;;;6281173;22;20465;-84
2023/12/22 12:57:53;;;;;;;4.77;1.23;;;4.10;99.90;;;;;;6280025;22;20167;-81
2023/12/22 13:00:32;;;;;;;3.90;1.23;;;4.20;99.90;;;;;;6279999;22;20242;-83
2023/12/22 13:03:07;;;;;;;3.07;0.90;;;4.20;99.90;;;;;;6308256;22;20258;-82
2023/12/22 13:05:34;;;;;;;3.93;0.87;;;4.20;99.90;;;;;;6282804;22;20208;-84
2023/12/22 13:08:13;;;;;;;12.40;4.73;;;4.30;99.90;;;;;;6282360;22;20196;-82